Nearby METAR Reports

 

KSJC - San Jose, California, USA
Distance from station: NE 14km
Actualización: 25/02/2021 07:53
Despejado
Despejado
 Viento del N
Viento: N 28 km/h, Racha: 37 km/h
Temperatura: 14°C
Rocío: -11°C
Humedad: 17%
Barómetro: 1024.4 hPa
Clouds: Despejado
Visibility: 16 km
2021/02/25 06:53 KSJC 250653Z 35015G20KT 10SM CLR 14/M11 A3025 RMK AO2 SLP244 T01441111
KNUQ - Moffett Nas/Mtn, California, USA
Distance from station: N 14km
Actualización: 25/02/2021 08:15
Despejado
Despejado
 Viento del N
Viento: N 28 km/h
Temperatura: 14°C
Rocío: -7°C
Humedad: 23%
Barómetro: 1024.7 hPa
Clouds: Despejado
Visibility: 16 km
2021/02/25 07:15 KNUQ 250715Z AUTO 36015KT 10SM CLR 14/M07 A3026 RMK AO2
 
KPAO - Palo Alto, California, USA
Distance from station: NNO 23km
Actualización: 25/02/2021 05:47
NOT Current
Despejado
Despejado
 Viento del calm
Viento: Calma
Temperatura: 13°C
Rocío: -3°C
Humedad: 33%
Barómetro: 1024.4 hPa
Clouds: Despejado
Visibility: 16 km
2021/02/25 04:47 KPAO 250447Z 00000KT 10SM SKC 13/M03 A3025 RMK LAST
KRHV - San Jose/Reid, California, USA
Distance from station: ENE 19km
Actualización: 25/02/2021 06:50
NOT Current
Despejado
Despejado
 Viento del NO
Viento: NO 11 km/h, Racha: 43 km/h
Temperatura: 14°C
Rocío: -9°C
Humedad: 20%
Barómetro: 1024 hPa
Clouds: Despejado
Visibility: 16 km
2021/02/25 05:50 KRHV 250550Z 32006G23KT 10SM SKC 14/M09 A3024 RMK LAST
 
KOAK - Oakland, California, USA
Distance from station: NNO 50km
Actualización: 25/02/2021 07:53
Despejado
Despejado
 Viento del N
Viento: N 22 km/h, Racha: 37 km/h
Temperatura: 16°C
Rocío: -9°C
Humedad: 17%
Barómetro: 1024.4 hPa
Clouds: Despejado
Visibility: 16 km
2021/02/25 06:53 KOAK 250653Z 36012G20KT 330V030 10SM CLR 16/M09 A3025 RMK AO2 PK WND 02029/0636 SLP243 T01611089
KSQL - San Carlos Airpo, California, USA
Distance from station: NO 34km
Actualización: 25/02/2021 08:15
Despejado
Despejado
 Viento del NNO
Viento: NNO 13 km/h
Temperatura: 15°C
Rocío: -10°C
Humedad: 17%
Barómetro: 1025.1 hPa
Clouds: Despejado
Visibility: 16 km
2021/02/25 07:15 KSQL 250715Z AUTO 34007KT 10SM CLR 15/M10 A3027 RMK AO2
 
KSFO - San Francisco, California, USA
Distance from station: NO 49km
Actualización: 25/02/2021 07:56
Despejado
Despejado
 Viento del NNE
Viento: NNE 24 km/h
Temperatura: 15°C
Rocío: 2°C
Humedad: 42%
Barómetro: 1024.4 hPa
Clouds: Despejado
Visibility: 16 km
2021/02/25 06:56 KSFO 250656Z 03013KT 10SM CLR 15/02 A3025 RMK AO2 SLP244 T01500017
KE16 - San Martin, California, USA
Distance from station: ESE 43km
Actualización: 25/02/2021 08:15
Despejado
Despejado
 Viento del NNO
Viento: NNO 22 km/h
Temperatura: 12°C
Rocío: -10°C
Humedad: 21%
Barómetro: 1023.4 hPa
Clouds: Despejado
Visibility: 16 km
2021/02/25 07:15 KE16 250715Z AUTO 33012KT 10SM CLR 12/M10 A3022 RMK AO2 PWINO PNO
 
KWVI - Watsonville, California, USA
Distance from station: SSE 44km
Actualización: 25/02/2021 07:53
Despejado
Despejado
 Viento del varies
Viento: varies 6 km/h
Temperatura: 14°C
Rocío: -10°C
Humedad: 18%
Barómetro: 1022.4 hPa
Clouds: Despejado
Visibility: 16 km
2021/02/25 06:53 KWVI 250653Z AUTO VRB03KT 10SM CLR 14/M10 A3019 RMK AO2 SLP223 T01391100 $
KHAF - Half Moon Bay, California, USA
Distance from station: ONO 50km
Actualización: 25/02/2021 08:15
Despejado
Despejado
 Viento del NNO
Viento: NNO 13 km/h
Temperatura: 13°C
Rocío: -7°C
Humedad: 24%
Barómetro: 1024.7 hPa
Clouds: Despejado
Visibility: 16 km
2021/02/25 07:15 KHAF 250715Z AUTO 33007KT 280V010 10SM CLR 13/M07 A3026 RMK AO2
 
KHWD - Hayward, California, USA
Distance from station: N 44km
Actualización: 25/02/2021 07:54
Despejado
Despejado
 Viento del ONO
Viento: ONO 6 km/h
Temperatura: 14°C
Rocío: -9°C
Humedad: 20%
Barómetro: 1024 hPa
Clouds: Despejado
Visibility: 16 km
2021/02/25 06:54 KHWD 250654Z 29003KT 10SM CLR 14/M09 A3024 RMK AO2 SLP250 T01391094
KLVK - Livermore, California, USA
Distance from station: NNE 51km
Actualización: 25/02/2021 07:53
Despejado
Despejado
 Viento del O
Viento: O 13 km/h
Temperatura: 12°C
Rocío: -12°C
Humedad: 18%
Barómetro: 1024.4 hPa
Clouds: Despejado
Visibility: 16 km
2021/02/25 06:53 KLVK 250653Z AUTO 27007KT 200V330 10SM CLR 12/M12 A3025 RMK AO2 PK WND 03026/0611 SLP240 T01221117